sensor_id;sensor_type;location;lat;lon;timestamp;pressure;altitude;pressure_sealevel;temperature;humidity
25510;BME280;13413;52.336;21.200;2023-04-01T00:05:10;98529.98;;;11.32;81.96
25510;BME280;13413;52.336;21.200;2023-04-01T00:08:06;98531.35;;;11.32;82.01
25510;BME280;13413;52.336;21.200;2023-04-01T00:11:00;98530.27;;;11.33;82.08
25510;BME280;13413;52.336;21.200;2023-04-01T00:13:55;98524.13;;;11.33;81.97
25510;BME280;13413;52.336;21.200;2023-04-01T00:16:49;98516.33;;;11.35;82.03
25510;BME280;13413;52.336;21.200;2023-04-01T00:19:43;98514.66;;;11.35;81.88
25510;BME280;13413;52.336;21.200;2023-04-01T00:22:36;98519.05;;;11.37;82.11
25510;BME280;13413;52.336;21.200;2023-04-01T00:25:30;98520.65;;;11.35;82.23
25510;BME280;13413;52.336;21.200;2023-04-01T00:28:24;98518.81;;;11.33;82.23
25510;BME280;13413;52.336;21.200;2023-04-01T00:31:18;98518.66;;;11.33;82.25
25510;BME280;13413;52.336;21.200;2023-04-01T00:34:12;98516.43;;;11.34;82.23
25510;BME280;13413;52.336;21.200;2023-04-01T00:37:08;98512.11;;;11.34;82.00
25510;BME280;13413;52.336;21.200;2023-04-01T00:40:02;98508.55;;;11.37;82.14
25510;BME280;13413;52.336;21.200;2023-04-01T00:42:56;98510.12;;;11.38;82.13
25510;BME280;13413;52.336;21.200;2023-04-01T00:45:51;98504.72;;;11.39;81.97
25510;BME280;13413;52.336;21.200;2023-04-01T00:48:47;98496.79;;;11.43;81.97
25510;BME280;13413;52.336;21.200;2023-04-01T00:51:42;98495.11;;;11.46;81.93
25510;BME280;13413;52.336;21.200;2023-04-01T00:54:38;98493.21;;;11.45;81.81
25510;BME280;13413;52.336;21.200;2023-04-01T00:57:36;98491.27;;;11.46;81.78
25510;BME280;13413;52.336;21.200;2023-04-01T01:00:31;98485.73;;;11.48;81.69
25510;BME280;13413;52.336;21.200;2023-04-01T01:03:26;98489.75;;;11.47;81.74
25510;BME280;13413;52.336;21.200;2023-04-01T01:06:28;98496.11;;;11.44;81.72
25510;BME280;13413;52.336;21.200;2023-04-01T01:09:33;98492.52;;;11.42;81.79
25510;BME280;13413;52.336;21.200;2023-04-01T01:12:34;98492.91;;;11.40;81.81
25510;BME280;13413;52.336;21.200;2023-04-01T01:15:37;98491.55;;;11.41;81.84
25510;BME280;13413;52.336;21.200;2023-04-01T01:18:38;98493.96;;;11.41;81.88
25510;BME280;13413;52.336;21.200;2023-04-01T01:21:47;98497.15;;;11.40;81.93
25510;BME280;13413;52.336;21.200;2023-04-01T01:24:54;98493.98;;;11.38;82.03
25510;BME280;13413;52.336;21.200;2023-04-01T01:28:00;98494.66;;;11.38;82.01
25510;BME280;13413;52.336;21.200;2023-04-01T01:30:58;98497.42;;;11.35;82.11
25510;BME280;13413;52.336;21.200;2023-04-01T01:34:06;98496.61;;;11.35;82.06
25510;BME280;13413;52.336;21.200;2023-04-01T01:37:10;98495.01;;;11.36;82.04
25510;BME280;13413;52.336;21.200;2023-04-01T01:40:07;98500.11;;;11.37;82.16
25510;BME280;13413;52.336;21.200;2023-04-01T01:43:05;98493.40;;;11.34;82.19
25510;BME280;13413;52.336;21.200;2023-04-01T01:46:04;98492.61;;;11.32;82.46
25510;BME280;13413;52.336;21.200;2023-04-01T01:48:57;98496.11;;;11.34;82.23
25510;BME280;13413;52.336;21.200;2023-04-01T01:51:51;98494.88;;;11.34;82.36
25510;BME280;13413;52.336;21.200;2023-04-01T02:03:36;98495.78;;;11.36;82.59
25510;BME280;13413;52.336;21.200;2023-04-01T02:06:34;98491.19;;;11.35;82.54
25510;BME280;13413;52.336;21.200;2023-04-01T02:09:30;98492.07;;;11.36;82.51
25510;BME280;13413;52.336;21.200;2023-04-01T02:12:24;98488.55;;;11.37;82.60
25510;BME280;13413;52.336;21.200;2023-04-01T02:15:19;98489.20;;;11.37;82.41
25510;BME280;13413;52.336;21.200;2023-04-01T02:18:15;98484.06;;;11.38;82.50
25510;BME280;13413;52.336;21.200;2023-04-01T02:21:13;98487.41;;;11.38;82.52
25510;BME280;13413;52.336;21.200;2023-04-01T02:24:12;98482.80;;;11.39;82.62
25510;BME280;13413;52.336;21.200;2023-04-01T02:27:08;98478.64;;;11.38;82.68
25510;BME280;13413;52.336;21.200;2023-04-01T02:30:03;98473.44;;;11.39;82.52
25510;BME280;13413;52.336;21.200;2023-04-01T02:32:58;98471.25;;;11.38;82.73
25510;BME280;13413;52.336;21.200;2023-04-01T02:35:52;98469.34;;;11.37;82.62
25510;BME280;13413;52.336;21.200;2023-04-01T02:38:46;98465.76;;;11.39;82.63
25510;BME280;13413;52.336;21.200;2023-04-01T02:41:42;98461.66;;;11.38;82.69
25510;BME280;13413;52.336;21.200;2023-04-01T02:44:37;98457.30;;;11.38;82.66
25510;BME280;13413;52.336;21.200;2023-04-01T02:47:31;98458.13;;;11.37;82.65
25510;BME280;13413;52.336;21.200;2023-04-01T02:50:25;98458.63;;;11.38;82.63
25510;BME280;13413;52.336;21.200;2023-04-01T02:53:19;98454.48;;;11.37;82.61
25510;BME280;13413;52.336;21.200;2023-04-01T02:56:13;98451.77;;;11.41;82.74
25510;BME280;13413;52.336;21.200;2023-04-01T02:59:07;98455.09;;;11.43;82.71
25510;BME280;13413;52.336;21.200;2023-04-01T03:02:02;98458.77;;;11.39;82.59
25510;BME280;13413;52.336;21.200;2023-04-01T03:04:56;98467.72;;;11.39;82.63
25510;BME280;13413;52.336;21.200;2023-04-01T03:07:50;98465.55;;;11.39;82.60
25510;BME280;13413;52.336;21.200;2023-04-01T03:10:44;98472.47;;;11.42;82.63
25510;BME280;13413;52.336;21.200;2023-04-01T03:13:38;98472.80;;;11.42;82.68
25510;BME280;13413;52.336;21.200;2023-04-01T03:19:40;98467.27;;;11.37;82.75
25510;BME280;13413;52.336;21.200;2023-04-01T03:22:34;98471.45;;;11.35;82.65
25510;BME280;13413;52.336;21.200;2023-04-01T03:25:28;98473.58;;;11.34;82.62
25510;BME280;13413;52.336;21.200;2023-04-01T03:28:22;98477.67;;;11.34;82.75
25510;BME280;13413;52.336;21.200;2023-04-01T03:31:16;98476.05;;;11.34;82.77
25510;BME280;13413;52.336;21.200;2023-04-01T03:34:10;98477.22;;;11.32;82.64
25510;BME280;13413;52.336;21.200;2023-04-01T03:37:04;98482.79;;;11.31;82.68
25510;BME280;13413;52.336;21.200;2023-04-01T03:39:58;98485.64;;;11.32;82.67
25510;BME280;13413;52.336;21.200;2023-04-01T03:42:52;98486.14;;;11.31;82.71
25510;BME280;13413;52.336;21.200;2023-04-01T03:45:49;98490.11;;;11.30;82.75
25510;BME280;13413;52.336;21.200;2023-04-01T03:48:45;98490.61;;;11.29;82.68
25510;BME280;13413;52.336;21.200;2023-04-01T03:54:34;98500.96;;;11.25;82.69
25510;BME280;13413;52.336;21.200;2023-04-01T03:57:30;98505.38;;;11.24;82.68
25510;BME280;13413;52.336;21.200;2023-04-01T04:00:25;98509.63;;;11.24;82.64
25510;BME280;13413;52.336;21.200;2023-04-01T04:03:18;98509.71;;;11.21;82.59
25510;BME280;13413;52.336;21.200;2023-04-01T04:06:13;98512.17;;;11.20;82.52
25510;BME280;13413;52.336;21.200;2023-04-01T04:09:08;98514.65;;;11.21;82.47
25510;BME280;13413;52.336;21.200;2023-04-01T04:12:00;98520.30;;;11.20;82.58
25510;BME280;13413;52.336;21.200;2023-04-01T04:14:52;98522.36;;;11.18;82.81
25510;BME280;13413;52.336;21.200;2023-04-01T04:23:23;98526.33;;;11.21;82.80
25510;BME280;13413;52.336;21.200;2023-04-01T04:26:17;98530.59;;;11.20;82.85
25510;BME280;13413;52.336;21.200;2023-04-01T04:29:11;98530.98;;;11.18;82.91
25510;BME280;13413;52.336;21.200;2023-04-01T04:32:05;98529.69;;;11.17;82.92
25510;BME280;13413;52.336;21.200;2023-04-01T04:34:59;98531.52;;;11.17;82.98
25510;BME280;13413;52.336;21.200;2023-04-01T04:37:53;98528.58;;;11.18;82.85
25510;BME280;13413;52.336;21.200;2023-04-01T04:40:47;98530.27;;;11.17;82.81
25510;BME280;13413;52.336;21.200;2023-04-01T04:43:47;98530.51;;;11.17;82.88
25510;BME280;13413;52.336;21.200;2023-04-01T04:46:41;98537.50;;;11.14;82.89
25510;BME280;13413;52.336;21.200;2023-04-01T04:49:36;98539.48;;;11.13;82.76
25510;BME280;13413;52.336;21.200;2023-04-01T04:52:29;98539.39;;;11.13;82.69
25510;BME280;13413;52.336;21.200;2023-04-01T04:55:25;98545.90;;;11.12;82.72
25510;BME280;13413;52.336;21.200;2023-04-01T04:58:20;98542.04;;;11.11;82.70
25510;BME280;13413;52.336;21.200;2023-04-01T05:01:15;98546.20;;;11.11;82.56
25510;BME280;13413;52.336;21.200;2023-04-01T05:04:10;98544.57;;;11.11;82.53
25510;BME280;13413;52.336;21.200;2023-04-01T05:07:04;98547.64;;;11.10;82.47
25510;BME280;13413;52.336;21.200;2023-04-01T05:09:58;98549.15;;;11.09;82.52
25510;BME280;13413;52.336;21.200;2023-04-01T05:12:52;98550.73;;;11.09;82.38
25510;BME280;13413;52.336;21.200;2023-04-01T05:15:46;98553.32;;;11.07;82.37
25510;BME280;13413;52.336;21.200;2023-04-01T05:18:40;98552.69;;;11.05;82.47
25510;BME280;13413;52.336;21.200;2023-04-01T05:21:34;98549.71;;;11.05;82.35
25510;BME280;13413;52.336;21.200;2023-04-01T05:24:27;98551.89;;;11.07;82.35
25510;BME280;13413;52.336;21.200;2023-04-01T05:27:22;98553.56;;;11.07;82.36
25510;BME280;13413;52.336;21.200;2023-04-01T05:30:16;98552.86;;;11.07;82.21
25510;BME280;13413;52.336;21.200;2023-04-01T05:33:10;98554.01;;;11.05;82.10
25510;BME280;13413;52.336;21.200;2023-04-01T05:36:10;98552.23;;;11.03;81.99
25510;BME280;13413;52.336;21.200;2023-04-01T05:39:05;98553.33;;;11.03;81.99
25510;BME280;13413;52.336;21.200;2023-04-01T05:44:52;98553.04;;;11.04;81.88
25510;BME280;13413;52.336;21.200;2023-04-01T05:47:46;98554.79;;;11.04;81.92
25510;BME280;13413;52.336;21.200;2023-04-01T05:50:41;98559.63;;;11.05;81.78
25510;BME280;13413;52.336;21.200;2023-04-01T05:53:35;98561.44;;;11.07;81.85
25510;BME280;13413;52.336;21.200;2023-04-01T05:56:29;98564.17;;;11.07;81.84
25510;BME280;13413;52.336;21.200;2023-04-01T05:59:23;98566.96;;;11.09;81.87
25510;BME280;13413;52.336;21.200;2023-04-01T06:02:18;98572.70;;;11.08;81.61
25510;BME280;13413;52.336;21.200;2023-04-01T06:05:18;98574.73;;;11.08;81.44
25510;BME280;13413;52.336;21.200;2023-04-01T06:08:19;98576.62;;;11.04;81.39
25510;BME280;13413;52.336;21.200;2023-04-01T06:11:31;98573.77;;;11.02;81.40
25510;BME280;13413;52.336;21.200;2023-04-01T06:14:33;98577.08;;;10.99;81.36
25510;BME280;13413;52.336;21.200;2023-04-01T06:17:46;98581.41;;;11.02;81.40
25510;BME280;13413;52.336;21.200;2023-04-01T06:20:50;98582.30;;;11.01;81.14
25510;BME280;13413;52.336;21.200;2023-04-01T06:24:00;98586.85;;;11.01;81.08
25510;BME280;13413;52.336;21.200;2023-04-01T06:27:04;98584.41;;;11.04;80.98
25510;BME280;13413;52.336;21.200;2023-04-01T06:30:13;98587.46;;;11.09;81.02
25510;BME280;13413;52.336;21.200;2023-04-01T06:33:27;98587.34;;;11.19;81.13
25510;BME280;13413;52.336;21.200;2023-04-01T06:39:30;98588.84;;;11.32;80.77
25510;BME280;13413;52.336;21.200;2023-04-01T06:42:47;98587.01;;;11.39;80.88
25510;BME280;13413;52.336;21.200;2023-04-01T06:45:50;98589.21;;;11.48;80.86
25510;BME280;13413;52.336;21.200;2023-04-01T06:49:04;98589.70;;;11.54;80.80
25510;BME280;13413;52.336;21.200;2023-04-01T06:52:05;98585.80;;;11.59;80.29
25510;BME280;13413;52.336;21.200;2023-04-01T06:55:20;98583.55;;;11.62;80.24
25510;BME280;13413;52.336;21.200;2023-04-01T06:58:20;98580.81;;;11.66;80.14
25510;BME280;13413;52.336;21.200;2023-04-01T07:01:19;98580.33;;;11.72;80.10
25510;BME280;13413;52.336;21.200;2023-04-01T07:04:14;98581.77;;;11.78;79.70
25510;BME280;13413;52.336;21.200;2023-04-01T07:07:16;98583.16;;;11.80;79.39
25510;BME280;13413;52.336;21.200;2023-04-01T07:10:19;98585.81;;;11.84;79.54
25510;BME280;13413;52.336;21.200;2023-04-01T07:13:18;98585.91;;;11.90;79.34
25510;BME280;13413;52.336;21.200;2023-04-01T07:16:17;98586.67;;;11.97;78.87
25510;BME280;13413;52.336;21.200;2023-04-01T07:19:18;98585.20;;;12.00;78.39
25510;BME280;13413;52.336;21.200;2023-04-01T07:22:23;98587.36;;;11.99;77.39
25510;BME280;13413;52.336;21.200;2023-04-01T07:25:22;98583.09;;;11.96;77.26
25510;BME280;13413;52.336;21.200;2023-04-01T07:28:37;98585.33;;;11.96;77.12
25510;BME280;13413;52.336;21.200;2023-04-01T07:31:45;98584.16;;;11.99;77.27
25510;BME280;13413;52.336;21.200;2023-04-01T07:34:51;98587.74;;;11.99;77.10
25510;BME280;13413;52.336;21.200;2023-04-01T07:37:57;98582.77;;;12.07;77.09
25510;BME280;13413;52.336;21.200;2023-04-01T07:40:59;98585.72;;;12.17;76.74
25510;BME280;13413;52.336;21.200;2023-04-01T07:44:04;98584.43;;;12.20;76.86
25510;BME280;13413;52.336;21.200;2023-04-01T07:47:11;98584.60;;;12.28;76.55
25510;BME280;13413;52.336;21.200;2023-04-01T07:50:19;98580.60;;;12.27;75.80
25510;BME280;13413;52.336;21.200;2023-04-01T07:53:21;98580.65;;;12.27;75.95
25510;BME280;13413;52.336;21.200;2023-04-01T07:56:21;98578.97;;;12.32;76.09
25510;BME280;13413;52.336;21.200;2023-04-01T07:59:21;98586.60;;;12.47;75.93
25510;BME280;13413;52.336;21.200;2023-04-01T08:02:30;98588.16;;;12.47;75.08
25510;BME280;13413;52.336;21.200;2023-04-01T08:05:29;98587.41;;;12.43;75.15
25510;BME280;13413;52.336;21.200;2023-04-01T08:08:35;98588.09;;;12.40;75.47
25510;BME280;13413;52.336;21.200;2023-04-01T08:11:46;98590.54;;;12.40;75.32
25510;BME280;13413;52.336;21.200;2023-04-01T08:14:52;98588.50;;;12.39;75.33
25510;BME280;13413;52.336;21.200;2023-04-01T08:17:56;98598.27;;;12.41;75.33
25510;BME280;13413;52.336;21.200;2023-04-01T08:20:57;98594.67;;;12.44;75.36
25510;BME280;13413;52.336;21.200;2023-04-01T08:23:54;98598.80;;;12.52;75.28
25510;BME280;13413;52.336;21.200;2023-04-01T08:26:53;98595.71;;;12.55;75.16
25510;BME280;13413;52.336;21.200;2023-04-01T08:29:53;98594.56;;;12.58;74.68
25510;BME280;13413;52.336;21.200;2023-04-01T08:32:53;98594.13;;;12.58;74.64
25510;BME280;13413;52.336;21.200;2023-04-01T08:35:54;98601.69;;;12.62;74.42
25510;BME280;13413;52.336;21.200;2023-04-01T08:38:53;98597.87;;;12.65;74.46
25510;BME280;13413;52.336;21.200;2023-04-01T08:42:04;98602.45;;;12.69;74.20
25510;BME280;13413;52.336;21.200;2023-04-01T08:45:21;98604.53;;;12.66;73.60
25510;BME280;13413;52.336;21.200;2023-04-01T08:48:32;98604.79;;;12.61;73.31
25510;BME280;13413;52.336;21.200;2023-04-01T08:51:47;98609.86;;;12.55;73.28
25510;BME280;13413;52.336;21.200;2023-04-01T09:00:25;98621.98;;;12.30;74.02
25510;BME280;13413;52.336;21.200;2023-04-01T09:03:43;98622.66;;;12.21;74.27
25510;BME280;13413;52.336;21.200;2023-04-01T09:06:51;98621.83;;;12.24;74.78
25510;BME280;13413;52.336;21.200;2023-04-01T09:17:06;98621.48;;;12.46;73.83
25510;BME280;13413;52.336;21.200;2023-04-01T09:20:19;98620.42;;;12.56;74.22
25510;BME280;13413;52.336;21.200;2023-04-01T09:23:35;98621.02;;;12.63;73.78
25510;BME280;13413;52.336;21.200;2023-04-01T09:26:47;98622.69;;;12.57;73.38
25510;BME280;13413;52.336;21.200;2023-04-01T09:33:36;98627.73;;;12.47;73.23
25510;BME280;13413;52.336;21.200;2023-04-01T09:37:01;98628.41;;;12.45;73.65
25510;BME280;13413;52.336;21.200;2023-04-01T09:40:18;98633.85;;;12.37;73.87
25510;BME280;13413;52.336;21.200;2023-04-01T09:43:39;98638.89;;;12.34;74.11
25510;BME280;13413;52.336;21.200;2023-04-01T09:47:00;98638.77;;;12.27;74.21
25510;BME280;13413;52.336;21.200;2023-04-01T09:50:20;98641.40;;;12.26;74.57
25510;BME280;13413;52.336;21.200;2023-04-01T09:53:29;98643.16;;;12.22;74.25
25510;BME280;13413;52.336;21.200;2023-04-01T09:57:08;98643.01;;;12.16;74.20
25510;BME280;13413;52.336;21.200;2023-04-01T10:04:15;98642.20;;;12.29;74.14
25510;BME280;13413;52.336;21.200;2023-04-01T10:07:36;98653.12;;;12.34;74.14
25510;BME280;13413;52.336;21.200;2023-04-01T10:14:27;98650.34;;;12.29;73.44
25510;BME280;13413;52.336;21.200;2023-04-01T10:21:08;98657.57;;;12.35;73.16
25510;BME280;13413;52.336;21.200;2023-04-01T10:27:38;98656.35;;;12.47;73.69
25510;BME280;13413;52.336;21.200;2023-04-01T10:31:08;98657.71;;;12.54;73.68
25510;BME280;13413;52.336;21.200;2023-04-01T10:44:47;98668.29;;;12.62;73.46
25510;BME280;13413;52.336;21.200;2023-04-01T10:48:00;98662.14;;;12.50;72.59
25510;BME280;13413;52.336;21.200;2023-04-01T10:51:23;98667.16;;;12.42;72.00
25510;BME280;13413;52.336;21.200;2023-04-01T10:54:42;98664.91;;;12.41;72.01
25510;BME280;13413;52.336;21.200;2023-04-01T10:58:01;98664.32;;;12.47;72.02
25510;BME280;13413;52.336;21.200;2023-04-01T11:01:33;98664.14;;;12.49;72.29
25510;BME280;13413;52.336;21.200;2023-04-01T11:08:34;98661.21;;;12.91;72.51
25510;BME280;13413;52.336;21.200;2023-04-01T11:22:09;98657.48;;;13.76;70.81
25510;BME280;13413;52.336;21.200;2023-04-01T11:25:34;98657.77;;;13.63;69.56
25510;BME280;13413;52.336;21.200;2023-04-01T11:28:55;98656.32;;;13.48;69.25
25510;BME280;13413;52.336;21.200;2023-04-01T11:32:01;98653.23;;;13.37;69.87
25510;BME280;13413;52.336;21.200;2023-04-01T11:35:09;98657.25;;;13.29;69.48
25510;BME280;13413;52.336;21.200;2023-04-01T11:38:19;98656.09;;;13.24;69.84
25510;BME280;13413;52.336;21.200;2023-04-01T11:41:28;98658.48;;;13.28;69.61
25510;BME280;13413;52.336;21.200;2023-04-01T11:44:26;98659.70;;;13.23;69.15
25510;BME280;13413;52.336;21.200;2023-04-01T11:47:35;98662.58;;;13.26;69.67
25510;BME280;13413;52.336;21.200;2023-04-01T11:50:41;98669.50;;;13.21;69.79
25510;BME280;13413;52.336;21.200;2023-04-01T11:53:47;98672.99;;;13.04;70.46
25510;BME280;13413;52.336;21.200;2023-04-01T11:56:57;98671.91;;;12.87;71.44
25510;BME280;13413;52.336;21.200;2023-04-01T12:03:41;98679.84;;;12.62;72.06
25510;BME280;13413;52.336;21.200;2023-04-01T12:06:43;98679.76;;;12.50;72.34
25510;BME280;13413;52.336;21.200;2023-04-01T12:09:46;98678.66;;;12.47;72.36
25510;BME280;13413;52.336;21.200;2023-04-01T12:12:48;98680.80;;;12.43;72.18
25510;BME280;13413;52.336;21.200;2023-04-01T12:15:56;98684.70;;;12.39;72.01
25510;BME280;13413;52.336;21.200;2023-04-01T12:18:57;98682.08;;;12.35;72.13
25510;BME280;13413;52.336;21.200;2023-04-01T12:22:03;98682.96;;;12.38;72.26
25510;BME280;13413;52.336;21.200;2023-04-01T12:28:18;98688.02;;;12.60;72.52
25510;BME280;13413;52.336;21.200;2023-04-01T12:31:23;98684.39;;;12.79;72.40
25510;BME280;13413;52.336;21.200;2023-04-01T12:34:54;98684.16;;;12.99;72.63
25510;BME280;13413;52.336;21.200;2023-04-01T12:38:13;98684.95;;;13.19;72.09
25510;BME280;13413;52.336;21.200;2023-04-01T12:41:15;98686.95;;;13.23;71.54
25510;BME280;13413;52.336;21.200;2023-04-01T12:44:22;98687.89;;;13.26;70.93
25510;BME280;13413;52.336;21.200;2023-04-01T12:54:04;98688.86;;;13.50;69.30
25510;BME280;13413;52.336;21.200;2023-04-01T12:57:17;98688.75;;;13.52;68.47
25510;BME280;13413;52.336;21.200;2023-04-01T13:00:38;98696.08;;;13.43;68.29
25510;BME280;13413;52.336;21.200;2023-04-01T13:04:01;98697.54;;;13.39;68.20
25510;BME280;13413;52.336;21.200;2023-04-01T13:36:23;98722.90;;;13.86;67.86
25510;BME280;13413;52.336;21.200;2023-04-01T13:39:31;98725.39;;;13.74;68.16
25510;BME280;13413;52.336;21.200;2023-04-01T13:42:31;98731.40;;;13.56;68.33
25510;BME280;13413;52.336;21.200;2023-04-01T13:45:38;98732.77;;;13.43;68.82
25510;BME280;13413;52.336;21.200;2023-04-01T13:48:52;98738.16;;;13.46;69.35
25510;BME280;13413;52.336;21.200;2023-04-01T13:52:08;98743.24;;;13.50;69.39
25510;BME280;13413;52.336;21.200;2023-04-01T14:09:28;98756.04;;;13.47;70.14
25510;BME280;13413;52.336;21.200;2023-04-01T14:12:31;98755.45;;;13.66;69.98
25510;BME280;13413;52.336;21.200;2023-04-01T14:19:00;98762.05;;;13.52;70.75
25510;BME280;13413;52.336;21.200;2023-04-01T14:22:02;98767.66;;;13.45;71.15
25510;BME280;13413;52.336;21.200;2023-04-01T14:28:21;98773.92;;;13.23;71.28
25510;BME280;13413;52.336;21.200;2023-04-01T14:31:29;98777.48;;;13.10;71.46
25510;BME280;13413;52.336;21.200;2023-04-01T14:34:34;98777.38;;;12.97;71.67
25510;BME280;13413;52.336;21.200;2023-04-01T14:37:54;98781.08;;;12.88;71.97
25510;BME280;13413;52.336;21.200;2023-04-01T14:40:56;98783.23;;;12.74;72.21
25510;BME280;13413;52.336;21.200;2023-04-01T14:44:10;98790.35;;;12.63;72.41
25510;BME280;13413;52.336;21.200;2023-04-01T14:47:27;98794.61;;;12.56;72.76
25510;BME280;13413;52.336;21.200;2023-04-01T14:50:24;98800.11;;;12.44;72.82
25510;BME280;13413;52.336;21.200;2023-04-01T14:53:29;98804.98;;;12.35;73.02
25510;BME280;13413;52.336;21.200;2023-04-01T14:56:41;98810.67;;;12.26;73.27
25510;BME280;13413;52.336;21.200;2023-04-01T14:59:41;98813.42;;;12.18;73.45
25510;BME280;13413;52.336;21.200;2023-04-01T15:02:50;98816.20;;;12.12;73.52
25510;BME280;13413;52.336;21.200;2023-04-01T15:05:51;98823.98;;;12.07;73.70
25510;BME280;13413;52.336;21.200;2023-04-01T15:08:53;98826.21;;;12.01;73.85
25510;BME280;13413;52.336;21.200;2023-04-01T15:12:00;98829.55;;;11.95;73.94
25510;BME280;13413;52.336;21.200;2023-04-01T15:15:16;98836.08;;;11.89;74.22
25510;BME280;13413;52.336;21.200;2023-04-01T15:18:18;98842.69;;;11.84;74.18
25510;BME280;13413;52.336;21.200;2023-04-01T15:25:05;98852.85;;;11.83;74.43
25510;BME280;13413;52.336;21.200;2023-04-01T15:28:07;98861.66;;;11.82;74.49
25510;BME280;13413;52.336;21.200;2023-04-01T15:31:11;98862.36;;;11.81;74.54
25510;BME280;13413;52.336;21.200;2023-04-01T15:34:28;98864.03;;;11.82;74.63
25510;BME280;13413;52.336;21.200;2023-04-01T15:37:34;98874.09;;;11.81;74.61
25510;BME280;13413;52.336;21.200;2023-04-01T15:40:32;98877.64;;;11.81;74.68
25510;BME280;13413;52.336;21.200;2023-04-01T15:43:36;98881.88;;;11.78;74.59
25510;BME280;13413;52.336;21.200;2023-04-01T15:46:44;98886.87;;;11.72;74.57
25510;BME280;13413;52.336;21.200;2023-04-01T15:49:42;98890.73;;;11.68;74.69
25510;BME280;13413;52.336;21.200;2023-04-01T15:52:45;98894.75;;;11.61;74.39
25510;BME280;13413;52.336;21.200;2023-04-01T15:55:48;98895.58;;;11.50;74.35
25510;BME280;13413;52.336;21.200;2023-04-01T15:58:53;98902.92;;;11.42;74.27
25510;BME280;13413;52.336;21.200;2023-04-01T16:01:56;98906.79;;;11.34;74.48
25510;BME280;13413;52.336;21.200;2023-04-01T16:04:58;98914.22;;;11.28;74.47
25510;BME280;13413;52.336;21.200;2023-04-01T16:08:05;98916.53;;;11.23;74.66
25510;BME280;13413;52.336;21.200;2023-04-01T16:11:14;98923.38;;;11.21;74.61
25510;BME280;13413;52.336;21.200;2023-04-01T16:14:18;98926.63;;;11.21;74.64
25510;BME280;13413;52.336;21.200;2023-04-01T16:17:29;98935.28;;;11.22;74.62
25510;BME280;13413;52.336;21.200;2023-04-01T16:20:23;98938.20;;;11.21;74.74
25510;BME280;13413;52.336;21.200;2023-04-01T16:28:57;98948.92;;;11.20;74.83
25510;BME280;13413;52.336;21.200;2023-04-01T16:32:12;98956.04;;;11.20;74.81
25510;BME280;13413;52.336;21.200;2023-04-01T16:35:23;98963.12;;;11.16;74.84
25510;BME280;13413;52.336;21.200;2023-04-01T16:38:24;98965.58;;;11.08;74.49
25510;BME280;13413;52.336;21.200;2023-04-01T16:41:25;98973.44;;;11.04;74.30
25510;BME280;13413;52.336;21.200;2023-04-01T16:44:26;98984.80;;;11.01;74.41
25510;BME280;13413;52.336;21.200;2023-04-01T16:47:22;98988.24;;;10.98;74.47
25510;BME280;13413;52.336;21.200;2023-04-01T16:50:21;98992.80;;;10.97;74.40
25510;BME280;13413;52.336;21.200;2023-04-01T16:53:19;98997.08;;;10.94;74.11
25510;BME280;13413;52.336;21.200;2023-04-01T16:56:22;99001.09;;;10.91;74.19
25510;BME280;13413;52.336;21.200;2023-04-01T16:59:21;99007.45;;;10.90;74.23
25510;BME280;13413;52.336;21.200;2023-04-01T17:02:20;99010.90;;;10.87;74.25
25510;BME280;13413;52.336;21.200;2023-04-01T17:05:16;99016.09;;;10.87;74.36
25510;BME280;13413;52.336;21.200;2023-04-01T17:08:20;99020.23;;;10.92;74.47
25510;BME280;13413;52.336;21.200;2023-04-01T17:11:19;99024.17;;;10.95;74.43
25510;BME280;13413;52.336;21.200;2023-04-01T17:14:23;99029.48;;;10.97;74.47
25510;BME280;13413;52.336;21.200;2023-04-01T17:17:26;99032.66;;;10.94;74.33
25510;BME280;13413;52.336;21.200;2023-04-01T17:20:35;99034.50;;;10.92;74.60
25510;BME280;13413;52.336;21.200;2023-04-01T17:23:36;99039.29;;;10.91;74.67
25510;BME280;13413;52.336;21.200;2023-04-01T17:26:39;99041.00;;;10.90;74.66
25510;BME280;13413;52.336;21.200;2023-04-01T17:29:43;99045.26;;;10.87;74.74
25510;BME280;13413;52.336;21.200;2023-04-01T17:32:47;99049.83;;;10.85;74.73
25510;BME280;13413;52.336;21.200;2023-04-01T17:35:56;99053.52;;;10.84;74.75
25510;BME280;13413;52.336;21.200;2023-04-01T17:42:12;99066.37;;;10.84;74.90
25510;BME280;13413;52.336;21.200;2023-04-01T17:45:16;99072.93;;;10.87;74.89
25510;BME280;13413;52.336;21.200;2023-04-01T17:48:21;99078.35;;;10.85;75.04
25510;BME280;13413;52.336;21.200;2023-04-01T17:51:26;99085.63;;;10.85;75.01
25510;BME280;13413;52.336;21.200;2023-04-01T17:54:33;99089.39;;;10.84;74.88
25510;BME280;13413;52.336;21.200;2023-04-01T17:57:45;99093.65;;;10.85;74.93
25510;BME280;13413;52.336;21.200;2023-04-01T18:00:55;99097.42;;;10.84;75.06
25510;BME280;13413;52.336;21.200;2023-04-01T18:04:15;99105.39;;;10.80;74.99
25510;BME280;13413;52.336;21.200;2023-04-01T18:10:46;99116.86;;;10.72;74.93
25510;BME280;13413;52.336;21.200;2023-04-01T18:14:03;99120.42;;;10.72;74.95
25510;BME280;13413;52.336;21.200;2023-04-01T18:17:19;99123.09;;;10.65;74.78
25510;BME280;13413;52.336;21.200;2023-04-01T18:20:28;99130.48;;;10.58;74.88
25510;BME280;13413;52.336;21.200;2023-04-01T18:23:30;99136.50;;;10.56;74.90
25510;BME280;13413;52.336;21.200;2023-04-01T18:26:31;99139.97;;;10.57;74.93
25510;BME280;13413;52.336;21.200;2023-04-01T18:29:33;99142.50;;;10.56;75.00
25510;BME280;13413;52.336;21.200;2023-04-01T18:32:35;99145.56;;;10.54;74.97
25510;BME280;13413;52.336;21.200;2023-04-01T18:35:44;99154.13;;;10.51;74.93
25510;BME280;13413;52.336;21.200;2023-04-01T18:38:40;99158.60;;;10.52;75.12
25510;BME280;13413;52.336;21.200;2023-04-01T18:41:40;99162.12;;;10.50;75.18